Chatterton, Georgia
Current Conditions -  °F | °C
As of 9:53 PM on Tuesday 25 Nov 2014 (Local Time) from KAMG Reporting Station
Light Rain Light Rain  
Wind Chill: 52°   Ceiling: 1000
Heat Index: 52°   Visibility: 4mi
Dew Point: 50°   Wind: 5mph
Humidity: 93%   Direction: 340°NNW
Pressure: 29.97"   Gusts: NA
Location:  31.4253°N, 82.5972°W
Report Text: KAMG 260253Z AUTO 34004KT 4SM -RA BR BKN010 OVC024 11/10 A2997 RMK AO2 RAB39 SLP149 P0000 60006 T01110100 56012
Loading
Personal Weather Stations






























Interactive Weather Map New forecast layout! Learn more

10-Day Weather Forecast

Advertisements
Track Severe Weather on mobile